sensor_id;sensor_type;location;lat;lon;timestamp;P1;durP1;ratioP1;P2;durP2;ratioP2
15486;SDS011;7845;53.698;10.078;2022-12-18T00:01:56;20.33;;;11.10;;
15486;SDS011;7845;53.698;10.078;2022-12-18T00:04:24;15.73;;;8.40;;
15486;SDS011;7845;53.698;10.078;2022-12-18T00:06:51;16.08;;;9.13;;
15486;SDS011;7845;53.698;10.078;2022-12-18T00:09:18;17.07;;;10.07;;
15486;SDS011;7845;53.698;10.078;2022-12-18T00:11:43;17.60;;;9.27;;
15486;SDS011;7845;53.698;10.078;2022-12-18T00:14:09;19.60;;;9.77;;
15486;SDS011;7845;53.698;10.078;2022-12-18T00:16:36;17.03;;;9.00;;
15486;SDS011;7845;53.698;10.078;2022-12-18T00:19:02;14.80;;;9.43;;
15486;SDS011;7845;53.698;10.078;2022-12-18T00:21:29;12.77;;;7.85;;
15486;SDS011;7845;53.698;10.078;2022-12-18T00:23:55;14.80;;;8.98;;
15486;SDS011;7845;53.698;10.078;2022-12-18T00:26:22;12.50;;;8.53;;
15486;SDS011;7845;53.698;10.078;2022-12-18T00:28:50;14.18;;;8.48;;
15486;SDS011;7845;53.698;10.078;2022-12-18T00:31:20;19.80;;;9.73;;
15486;SDS011;7845;53.698;10.078;2022-12-18T00:33:47;17.67;;;10.20;;
15486;SDS011;7845;53.698;10.078;2022-12-18T00:36:14;16.20;;;9.20;;
15486;SDS011;7845;53.698;10.078;2022-12-18T00:38:44;14.10;;;9.20;;
15486;SDS011;7845;53.698;10.078;2022-12-18T00:41:14;14.80;;;8.87;;
15486;SDS011;7845;53.698;10.078;2022-12-18T00:44:04;14.47;;;7.93;;
15486;SDS011;7845;53.698;10.078;2022-12-18T00:46:30;13.48;;;8.45;;
15486;SDS011;7845;53.698;10.078;2022-12-18T00:48:56;16.33;;;8.90;;
15486;SDS011;7845;53.698;10.078;2022-12-18T00:51:23;15.77;;;9.60;;
15486;SDS011;7845;53.698;10.078;2022-12-18T00:53:48;15.83;;;8.70;;
15486;SDS011;7845;53.698;10.078;2022-12-18T00:56:15;18.17;;;10.73;;
15486;SDS011;7845;53.698;10.078;2022-12-18T00:58:40;17.80;;;10.30;;
15486;SDS011;7845;53.698;10.078;2022-12-18T01:01:05;13.27;;;8.67;;
15486;SDS011;7845;53.698;10.078;2022-12-18T01:03:31;14.53;;;9.70;;
15486;SDS011;7845;53.698;10.078;2022-12-18T01:05:57;14.47;;;8.50;;
15486;SDS011;7845;53.698;10.078;2022-12-18T01:08:22;17.67;;;8.10;;
15486;SDS011;7845;53.698;10.078;2022-12-18T01:10:48;14.27;;;8.63;;
15486;SDS011;7845;53.698;10.078;2022-12-18T01:13:14;16.23;;;9.03;;
15486;SDS011;7845;53.698;10.078;2022-12-18T01:15:39;15.50;;;8.83;;
15486;SDS011;7845;53.698;10.078;2022-12-18T01:18:05;16.57;;;9.07;;
15486;SDS011;7845;53.698;10.078;2022-12-18T01:20:31;12.80;;;7.97;;
15486;SDS011;7845;53.698;10.078;2022-12-18T01:22:58;17.00;;;9.87;;
15486;SDS011;7845;53.698;10.078;2022-12-18T01:25:24;13.52;;;8.25;;
15486;SDS011;7845;53.698;10.078;2022-12-18T01:27:50;13.90;;;7.60;;
15486;SDS011;7845;53.698;10.078;2022-12-18T01:30:15;16.57;;;9.50;;
15486;SDS011;7845;53.698;10.078;2022-12-18T01:32:40;15.93;;;8.97;;
15486;SDS011;7845;53.698;10.078;2022-12-18T01:35:06;15.17;;;8.97;;
15486;SDS011;7845;53.698;10.078;2022-12-18T01:37:32;12.57;;;8.67;;
15486;SDS011;7845;53.698;10.078;2022-12-18T01:39:58;17.48;;;8.30;;
15486;SDS011;7845;53.698;10.078;2022-12-18T01:42:24;15.10;;;7.53;;
15486;SDS011;7845;53.698;10.078;2022-12-18T01:52:38;15.60;;;8.25;;
15486;SDS011;7845;53.698;10.078;2022-12-18T01:55:06;14.47;;;7.67;;
15486;SDS011;7845;53.698;10.078;2022-12-18T01:57:33;16.13;;;8.50;;
15486;SDS011;7845;53.698;10.078;2022-12-18T02:00:00;17.20;;;8.27;;
15486;SDS011;7845;53.698;10.078;2022-12-18T02:02:29;16.55;;;8.23;;
15486;SDS011;7845;53.698;10.078;2022-12-18T02:04:56;14.27;;;7.70;;
15486;SDS011;7845;53.698;10.078;2022-12-18T02:07:33;14.43;;;8.73;;
15486;SDS011;7845;53.698;10.078;2022-12-18T02:10:25;12.90;;;7.20;;
15486;SDS011;7845;53.698;10.078;2022-12-18T02:12:59;16.50;;;8.70;;
15486;SDS011;7845;53.698;10.078;2022-12-18T02:18:43;15.82;;;8.07;;
15486;SDS011;7845;53.698;10.078;2022-12-18T02:24:03;12.65;;;7.75;;
15486;SDS011;7845;53.698;10.078;2022-12-18T02:26:56;13.50;;;7.63;;
15486;SDS011;7845;53.698;10.078;2022-12-18T02:29:26;14.38;;;7.30;;
15486;SDS011;7845;53.698;10.078;2022-12-18T02:32:04;12.77;;;7.28;;
15486;SDS011;7845;53.698;10.078;2022-12-18T02:34:36;14.85;;;7.32;;
15486;SDS011;7845;53.698;10.078;2022-12-18T02:37:04;12.63;;;7.63;;
15486;SDS011;7845;53.698;10.078;2022-12-18T02:39:34;11.75;;;7.40;;
15486;SDS011;7845;53.698;10.078;2022-12-18T02:42:04;15.05;;;7.00;;
15486;SDS011;7845;53.698;10.078;2022-12-18T02:44:35;15.93;;;8.52;;
15486;SDS011;7845;53.698;10.078;2022-12-18T02:47:10;16.10;;;8.13;;
15486;SDS011;7845;53.698;10.078;2022-12-18T02:52:55;15.77;;;7.95;;
15486;SDS011;7845;53.698;10.078;2022-12-18T02:55:26;14.77;;;7.75;;
15486;SDS011;7845;53.698;10.078;2022-12-18T03:00:43;12.98;;;7.53;;
15486;SDS011;7845;53.698;10.078;2022-12-18T03:03:36;13.45;;;6.65;;
15486;SDS011;7845;53.698;10.078;2022-12-18T03:06:08;16.50;;;8.35;;
15486;SDS011;7845;53.698;10.078;2022-12-18T03:08:41;13.20;;;7.30;;
15486;SDS011;7845;53.698;10.078;2022-12-18T03:11:11;16.27;;;7.45;;
15486;SDS011;7845;53.698;10.078;2022-12-18T03:13:43;11.45;;;6.38;;
15486;SDS011;7845;53.698;10.078;2022-12-18T03:16:18;12.00;;;7.50;;
15486;SDS011;7845;53.698;10.078;2022-12-18T03:18:49;12.68;;;6.70;;
15486;SDS011;7845;53.698;10.078;2022-12-18T03:21:21;12.98;;;6.90;;
15486;SDS011;7845;53.698;10.078;2022-12-18T03:23:53;11.48;;;6.78;;
15486;SDS011;7845;53.698;10.078;2022-12-18T03:26:22;11.65;;;6.80;;
15486;SDS011;7845;53.698;10.078;2022-12-18T03:28:51;12.75;;;7.03;;
15486;SDS011;7845;53.698;10.078;2022-12-18T03:31:24;11.38;;;6.35;;
15486;SDS011;7845;53.698;10.078;2022-12-18T03:33:55;12.15;;;6.25;;
15486;SDS011;7845;53.698;10.078;2022-12-18T03:36:24;11.02;;;7.40;;
15486;SDS011;7845;53.698;10.078;2022-12-18T03:38:49;11.60;;;6.40;;
15486;SDS011;7845;53.698;10.078;2022-12-18T03:41:32;10.50;;;6.55;;
15486;SDS011;7845;53.698;10.078;2022-12-18T03:47:11;9.95;;;5.20;;
15486;SDS011;7845;53.698;10.078;2022-12-18T03:52:34;11.82;;;6.40;;
15486;SDS011;7845;53.698;10.078;2022-12-18T03:55:03;12.50;;;6.63;;
15486;SDS011;7845;53.698;10.078;2022-12-18T03:57:32;15.95;;;6.85;;
15486;SDS011;7845;53.698;10.078;2022-12-18T04:00:03;10.90;;;5.83;;
15486;SDS011;7845;53.698;10.078;2022-12-18T04:02:31;12.57;;;6.93;;
15486;SDS011;7845;53.698;10.078;2022-12-18T04:04:59;10.07;;;6.10;;
15486;SDS011;7845;53.698;10.078;2022-12-18T04:07:26;12.15;;;7.18;;
15486;SDS011;7845;53.698;10.078;2022-12-18T04:09:53;13.67;;;6.10;;
15486;SDS011;7845;53.698;10.078;2022-12-18T04:12:25;8.95;;;5.47;;
15486;SDS011;7845;53.698;10.078;2022-12-18T04:14:51;9.57;;;6.05;;
15486;SDS011;7845;53.698;10.078;2022-12-18T04:17:17;10.33;;;5.73;;
15486;SDS011;7845;53.698;10.078;2022-12-18T04:19:42;13.80;;;6.10;;
15486;SDS011;7845;53.698;10.078;2022-12-18T04:22:08;9.77;;;5.80;;
15486;SDS011;7845;53.698;10.078;2022-12-18T04:24:35;11.88;;;6.18;;
15486;SDS011;7845;53.698;10.078;2022-12-18T04:27:00;11.33;;;6.00;;
15486;SDS011;7845;53.698;10.078;2022-12-18T04:29:25;9.20;;;4.90;;
15486;SDS011;7845;53.698;10.078;2022-12-18T04:31:52;12.60;;;7.13;;
15486;SDS011;7845;53.698;10.078;2022-12-18T04:34:18;11.57;;;6.82;;
15486;SDS011;7845;53.698;10.078;2022-12-18T04:36:43;14.33;;;6.80;;
15486;SDS011;7845;53.698;10.078;2022-12-18T04:39:09;10.93;;;6.47;;
15486;SDS011;7845;53.698;10.078;2022-12-18T04:41:34;13.20;;;6.10;;
15486;SDS011;7845;53.698;10.078;2022-12-18T04:43:59;10.30;;;6.00;;
15486;SDS011;7845;53.698;10.078;2022-12-18T04:46:25;13.50;;;6.27;;
15486;SDS011;7845;53.698;10.078;2022-12-18T04:48:50;11.70;;;6.27;;
15486;SDS011;7845;53.698;10.078;2022-12-18T04:51:15;25.40;;;7.17;;
15486;SDS011;7845;53.698;10.078;2022-12-18T04:53:41;10.30;;;6.13;;
15486;SDS011;7845;53.698;10.078;2022-12-18T04:56:07;12.07;;;6.50;;
15486;SDS011;7845;53.698;10.078;2022-12-18T04:58:35;11.15;;;6.35;;
15486;SDS011;7845;53.698;10.078;2022-12-18T05:01:01;14.68;;;6.25;;
15486;SDS011;7845;53.698;10.078;2022-12-18T05:03:28;12.00;;;6.60;;
15486;SDS011;7845;53.698;10.078;2022-12-18T05:05:53;10.90;;;6.03;;
15486;SDS011;7845;53.698;10.078;2022-12-18T05:08:18;12.57;;;6.97;;
15486;SDS011;7845;53.698;10.078;2022-12-18T05:10:44;10.80;;;6.40;;
15486;SDS011;7845;53.698;10.078;2022-12-18T05:13:09;12.67;;;5.27;;
15486;SDS011;7845;53.698;10.078;2022-12-18T05:15:35;18.50;;;7.40;;
15486;SDS011;7845;53.698;10.078;2022-12-18T05:18:00;11.40;;;6.23;;
15486;SDS011;7845;53.698;10.078;2022-12-18T05:20:26;13.40;;;6.20;;
15486;SDS011;7845;53.698;10.078;2022-12-18T05:22:53;15.45;;;6.25;;
15486;SDS011;7845;53.698;10.078;2022-12-18T05:25:19;12.30;;;7.05;;
15486;SDS011;7845;53.698;10.078;2022-12-18T05:27:46;11.30;;;5.93;;
15486;SDS011;7845;53.698;10.078;2022-12-18T05:30:12;11.13;;;6.10;;
15486;SDS011;7845;53.698;10.078;2022-12-18T05:32:38;10.65;;;7.30;;
15486;SDS011;7845;53.698;10.078;2022-12-18T05:35:05;11.77;;;6.95;;
15486;SDS011;7845;53.698;10.078;2022-12-18T05:37:32;12.77;;;6.70;;
15486;SDS011;7845;53.698;10.078;2022-12-18T05:39:58;13.07;;;7.57;;
15486;SDS011;7845;53.698;10.078;2022-12-18T05:42:24;17.57;;;6.80;;
15486;SDS011;7845;53.698;10.078;2022-12-18T05:44:50;11.27;;;6.97;;
15486;SDS011;7845;53.698;10.078;2022-12-18T05:47:15;13.43;;;7.43;;
15486;SDS011;7845;53.698;10.078;2022-12-18T05:49:41;11.27;;;6.23;;
15486;SDS011;7845;53.698;10.078;2022-12-18T05:52:06;12.40;;;7.20;;
15486;SDS011;7845;53.698;10.078;2022-12-18T05:54:32;10.67;;;5.70;;
15486;SDS011;7845;53.698;10.078;2022-12-18T05:56:57;14.40;;;6.90;;
15486;SDS011;7845;53.698;10.078;2022-12-18T05:59:23;12.40;;;7.10;;
15486;SDS011;7845;53.698;10.078;2022-12-18T06:01:49;11.17;;;6.33;;
15486;SDS011;7845;53.698;10.078;2022-12-18T06:04:14;9.53;;;6.27;;
15486;SDS011;7845;53.698;10.078;2022-12-18T06:06:39;11.80;;;6.47;;
15486;SDS011;7845;53.698;10.078;2022-12-18T06:09:05;13.23;;;6.63;;
15486;SDS011;7845;53.698;10.078;2022-12-18T06:11:33;12.65;;;7.65;;
15486;SDS011;7845;53.698;10.078;2022-12-18T06:14:04;12.90;;;6.82;;
15486;SDS011;7845;53.698;10.078;2022-12-18T06:16:30;10.32;;;6.68;;
15486;SDS011;7845;53.698;10.078;2022-12-18T06:18:57;10.83;;;6.50;;
15486;SDS011;7845;53.698;10.078;2022-12-18T06:21:23;13.52;;;6.85;;
15486;SDS011;7845;53.698;10.078;2022-12-18T06:23:48;10.23;;;6.10;;
15486;SDS011;7845;53.698;10.078;2022-12-18T06:26:15;12.32;;;7.25;;
15486;SDS011;7845;53.698;10.078;2022-12-18T06:28:41;10.50;;;5.57;;
15486;SDS011;7845;53.698;10.078;2022-12-18T06:31:07;11.02;;;7.22;;
15486;SDS011;7845;53.698;10.078;2022-12-18T06:33:35;12.73;;;6.57;;
15486;SDS011;7845;53.698;10.078;2022-12-18T06:36:05;17.73;;;6.35;;
15486;SDS011;7845;53.698;10.078;2022-12-18T06:38:34;14.32;;;6.40;;
15486;SDS011;7845;53.698;10.078;2022-12-18T06:41:05;9.57;;;6.03;;
15486;SDS011;7845;53.698;10.078;2022-12-18T06:43:32;8.68;;;5.10;;
15486;SDS011;7845;53.698;10.078;2022-12-18T06:45:58;10.63;;;6.50;;
15486;SDS011;7845;53.698;10.078;2022-12-18T06:48:25;13.07;;;7.03;;
15486;SDS011;7845;53.698;10.078;2022-12-18T06:50:50;17.50;;;6.80;;
15486;SDS011;7845;53.698;10.078;2022-12-18T06:53:15;12.33;;;6.97;;
15486;SDS011;7845;53.698;10.078;2022-12-18T06:55:42;12.90;;;7.88;;
15486;SDS011;7845;53.698;10.078;2022-12-18T06:58:07;15.13;;;7.30;;
15486;SDS011;7845;53.698;10.078;2022-12-18T07:00:33;13.40;;;7.40;;
15486;SDS011;7845;53.698;10.078;2022-12-18T07:02:58;15.90;;;7.53;;
15486;SDS011;7845;53.698;10.078;2022-12-18T07:05:23;12.40;;;6.40;;
15486;SDS011;7845;53.698;10.078;2022-12-18T07:07:49;11.37;;;7.20;;
15486;SDS011;7845;53.698;10.078;2022-12-18T07:10:15;14.13;;;7.82;;
15486;SDS011;7845;53.698;10.078;2022-12-18T07:12:42;17.30;;;7.90;;
15486;SDS011;7845;53.698;10.078;2022-12-18T07:15:09;14.30;;;6.68;;
15486;SDS011;7845;53.698;10.078;2022-12-18T07:17:35;15.17;;;7.53;;
15486;SDS011;7845;53.698;10.078;2022-12-18T07:20:01;14.73;;;8.02;;
15486;SDS011;7845;53.698;10.078;2022-12-18T07:22:27;15.63;;;8.17;;
15486;SDS011;7845;53.698;10.078;2022-12-18T07:24:52;15.20;;;7.57;;
15486;SDS011;7845;53.698;10.078;2022-12-18T07:27:18;13.57;;;7.70;;
15486;SDS011;7845;53.698;10.078;2022-12-18T07:29:44;14.03;;;7.90;;
15486;SDS011;7845;53.698;10.078;2022-12-18T07:32:09;16.73;;;9.27;;
15486;SDS011;7845;53.698;10.078;2022-12-18T07:34:34;13.70;;;8.47;;
15486;SDS011;7845;53.698;10.078;2022-12-18T07:37:00;11.67;;;7.30;;
15486;SDS011;7845;53.698;10.078;2022-12-18T07:39:25;13.57;;;7.50;;
15486;SDS011;7845;53.698;10.078;2022-12-18T07:41:51;13.50;;;7.90;;
15486;SDS011;7845;53.698;10.078;2022-12-18T07:44:34;14.00;;;7.70;;
15486;SDS011;7845;53.698;10.078;2022-12-18T07:47:01;15.15;;;7.18;;
15486;SDS011;7845;53.698;10.078;2022-12-18T07:49:27;14.93;;;7.50;;
15486;SDS011;7845;53.698;10.078;2022-12-18T07:51:54;14.03;;;8.10;;
15486;SDS011;7845;53.698;10.078;2022-12-18T07:54:21;12.63;;;8.65;;
15486;SDS011;7845;53.698;10.078;2022-12-18T07:56:46;14.23;;;7.80;;
15486;SDS011;7845;53.698;10.078;2022-12-18T07:59:13;13.77;;;7.47;;
15486;SDS011;7845;53.698;10.078;2022-12-18T08:01:38;15.60;;;7.33;;
15486;SDS011;7845;53.698;10.078;2022-12-18T08:04:03;15.57;;;8.00;;
15486;SDS011;7845;53.698;10.078;2022-12-18T08:06:29;16.20;;;8.30;;
15486;SDS011;7845;53.698;10.078;2022-12-18T08:08:54;15.50;;;8.20;;
15486;SDS011;7845;53.698;10.078;2022-12-18T08:11:21;13.73;;;8.00;;
15486;SDS011;7845;53.698;10.078;2022-12-18T08:13:47;14.20;;;8.40;;
15486;SDS011;7845;53.698;10.078;2022-12-18T08:16:14;14.98;;;8.80;;
15486;SDS011;7845;53.698;10.078;2022-12-18T08:18:39;18.83;;;9.47;;
15486;SDS011;7845;53.698;10.078;2022-12-18T08:21:11;13.90;;;7.77;;
15486;SDS011;7845;53.698;10.078;2022-12-18T08:23:39;19.63;;;8.90;;
15486;SDS011;7845;53.698;10.078;2022-12-18T08:26:06;15.23;;;8.60;;
15486;SDS011;7845;53.698;10.078;2022-12-18T08:28:31;15.20;;;8.63;;
15486;SDS011;7845;53.698;10.078;2022-12-18T08:30:56;15.20;;;8.20;;
15486;SDS011;7845;53.698;10.078;2022-12-18T08:33:22;15.37;;;8.47;;
15486;SDS011;7845;53.698;10.078;2022-12-18T08:35:47;14.13;;;8.33;;
15486;SDS011;7845;53.698;10.078;2022-12-18T08:38:13;14.83;;;8.23;;
15486;SDS011;7845;53.698;10.078;2022-12-18T08:40:38;16.87;;;8.77;;
15486;SDS011;7845;53.698;10.078;2022-12-18T08:43:04;15.50;;;8.83;;
15486;SDS011;7845;53.698;10.078;2022-12-18T08:45:48;16.08;;;8.52;;
15486;SDS011;7845;53.698;10.078;2022-12-18T08:48:14;14.73;;;7.83;;
15486;SDS011;7845;53.698;10.078;2022-12-18T08:50:40;15.90;;;9.07;;
15486;SDS011;7845;53.698;10.078;2022-12-18T08:53:07;16.65;;;9.23;;
15486;SDS011;7845;53.698;10.078;2022-12-18T08:55:32;16.83;;;8.43;;
15486;SDS011;7845;53.698;10.078;2022-12-18T08:58:00;17.73;;;9.00;;
15486;SDS011;7845;53.698;10.078;2022-12-18T09:00:25;14.40;;;8.20;;
15486;SDS011;7845;53.698;10.078;2022-12-18T09:02:51;13.88;;;8.10;;
15486;SDS011;7845;53.698;10.078;2022-12-18T09:05:18;13.30;;;8.40;;
15486;SDS011;7845;53.698;10.078;2022-12-18T09:07:43;13.20;;;8.37;;
15486;SDS011;7845;53.698;10.078;2022-12-18T09:10:09;13.87;;;8.73;;
15486;SDS011;7845;53.698;10.078;2022-12-18T09:12:34;16.20;;;9.50;;
15486;SDS011;7845;53.698;10.078;2022-12-18T09:15:00;13.33;;;8.60;;
15486;SDS011;7845;53.698;10.078;2022-12-18T09:17:25;23.63;;;9.57;;
15486;SDS011;7845;53.698;10.078;2022-12-18T09:19:51;19.77;;;10.53;;
15486;SDS011;7845;53.698;10.078;2022-12-18T09:22:16;15.70;;;8.77;;
15486;SDS011;7845;53.698;10.078;2022-12-18T09:24:41;16.80;;;8.23;;
15486;SDS011;7845;53.698;10.078;2022-12-18T09:27:07;15.40;;;8.37;;
15486;SDS011;7845;53.698;10.078;2022-12-18T09:29:32;16.40;;;8.23;;
15486;SDS011;7845;53.698;10.078;2022-12-18T09:31:57;19.20;;;8.83;;
15486;SDS011;7845;53.698;10.078;2022-12-18T09:34:23;14.60;;;7.70;;
15486;SDS011;7845;53.698;10.078;2022-12-18T09:36:48;15.73;;;8.40;;
15486;SDS011;7845;53.698;10.078;2022-12-18T09:39:14;28.10;;;8.60;;
15486;SDS011;7845;53.698;10.078;2022-12-18T09:41:53;17.00;;;9.67;;
15486;SDS011;7845;53.698;10.078;2022-12-18T09:44:22;14.05;;;7.20;;
15486;SDS011;7845;53.698;10.078;2022-12-18T09:46:59;16.70;;;8.80;;
15486;SDS011;7845;53.698;10.078;2022-12-18T09:49:28;16.30;;;8.40;;
15486;SDS011;7845;53.698;10.078;2022-12-18T09:51:57;15.47;;;8.40;;
15486;SDS011;7845;53.698;10.078;2022-12-18T09:54:37;16.70;;;8.47;;
15486;SDS011;7845;53.698;10.078;2022-12-18T09:57:18;15.93;;;8.50;;
15486;SDS011;7845;53.698;10.078;2022-12-18T09:59:48;16.73;;;8.90;;
15486;SDS011;7845;53.698;10.078;2022-12-18T10:02:19;14.40;;;9.30;;
15486;SDS011;7845;53.698;10.078;2022-12-18T10:04:49;14.03;;;8.33;;
15486;SDS011;7845;53.698;10.078;2022-12-18T10:07:47;14.20;;;8.37;;
15486;SDS011;7845;53.698;10.078;2022-12-18T10:10:26;16.80;;;8.27;;
15486;SDS011;7845;53.698;10.078;2022-12-18T10:21:19;11.87;;;6.93;;
15486;SDS011;7845;53.698;10.078;2022-12-18T10:23:52;12.20;;;7.30;;
15486;SDS011;7845;53.698;10.078;2022-12-18T10:26:24;15.37;;;8.10;;
15486;SDS011;7845;53.698;10.078;2022-12-18T10:28:50;12.43;;;7.43;;
15486;SDS011;7845;53.698;10.078;2022-12-18T10:31:23;12.40;;;6.83;;
15486;SDS011;7845;53.698;10.078;2022-12-18T10:33:49;12.97;;;7.30;;
15486;SDS011;7845;53.698;10.078;2022-12-18T10:36:15;14.57;;;7.00;;
15486;SDS011;7845;53.698;10.078;2022-12-18T10:38:43;12.40;;;7.53;;
15486;SDS011;7845;53.698;10.078;2022-12-18T10:43:47;12.10;;;6.63;;
15486;SDS011;7845;53.698;10.078;2022-12-18T10:46:14;12.13;;;6.07;;
15486;SDS011;7845;53.698;10.078;2022-12-18T10:51:45;11.90;;;6.93;;
15486;SDS011;7845;53.698;10.078;2022-12-18T10:54:04;11.33;;;6.47;;
15486;SDS011;7845;53.698;10.078;2022-12-18T10:56:38;11.70;;;6.80;;
15486;SDS011;7845;53.698;10.078;2022-12-18T10:59:05;13.60;;;7.40;;
15486;SDS011;7845;53.698;10.078;2022-12-18T11:04:17;11.87;;;7.03;;
15486;SDS011;7845;53.698;10.078;2022-12-18T11:09:43;9.03;;;5.90;;
15486;SDS011;7845;53.698;10.078;2022-12-18T11:12:24;11.50;;;6.20;;
15486;SDS011;7845;53.698;10.078;2022-12-18T11:14:53;12.67;;;7.43;;
15486;SDS011;7845;53.698;10.078;2022-12-18T11:17:22;11.97;;;6.23;;
15486;SDS011;7845;53.698;10.078;2022-12-18T11:19:58;16.60;;;7.07;;
15486;SDS011;7845;53.698;10.078;2022-12-18T11:22:26;11.87;;;6.47;;
15486;SDS011;7845;53.698;10.078;2022-12-18T11:25:01;13.10;;;6.60;;
15486;SDS011;7845;53.698;10.078;2022-12-18T11:27:31;10.60;;;6.70;;
15486;SDS011;7845;53.698;10.078;2022-12-18T11:30:08;10.17;;;6.03;;
15486;SDS011;7845;53.698;10.078;2022-12-18T11:32:45;14.83;;;7.10;;
15486;SDS011;7845;53.698;10.078;2022-12-18T11:35:23;13.40;;;6.40;;
15486;SDS011;7845;53.698;10.078;2022-12-18T11:37:53;12.60;;;6.60;;
15486;SDS011;7845;53.698;10.078;2022-12-18T11:40:30;11.87;;;5.70;;
15486;SDS011;7845;53.698;10.078;2022-12-18T11:43:07;16.53;;;6.10;;
15486;SDS011;7845;53.698;10.078;2022-12-18T11:46:00;14.70;;;6.67;;
15486;SDS011;7845;53.698;10.078;2022-12-18T11:49:13;12.20;;;6.37;;
15486;SDS011;7845;53.698;10.078;2022-12-18T11:51:58;15.40;;;8.23;;
15486;SDS011;7845;53.698;10.078;2022-12-18T11:54:25;33.40;;;16.80;;
15486;SDS011;7845;53.698;10.078;2022-12-18T11:56:55;12.80;;;7.13;;
15486;SDS011;7845;53.698;10.078;2022-12-18T12:02:26;25.70;;;14.43;;
15486;SDS011;7845;53.698;10.078;2022-12-18T12:05:00;27.47;;;15.00;;
15486;SDS011;7845;53.698;10.078;2022-12-18T12:07:45;21.33;;;12.77;;
15486;SDS011;7845;53.698;10.078;2022-12-18T12:16:27;31.27;;;22.27;;
15486;SDS011;7845;53.698;10.078;2022-12-18T12:19:19;38.43;;;26.37;;
15486;SDS011;7845;53.698;10.078;2022-12-18T12:21:52;29.57;;;19.63;;
15486;SDS011;7845;53.698;10.078;2022-12-18T12:27:44;49.37;;;39.97;;
15486;SDS011;7845;53.698;10.078;2022-12-18T12:30:28;32.87;;;26.40;;
15486;SDS011;7845;53.698;10.078;2022-12-18T12:35:42;28.70;;;24.23;;
15486;SDS011;7845;53.698;10.078;2022-12-18T12:40:55;21.13;;;12.50;;
15486;SDS011;7845;53.698;10.078;2022-12-18T12:43:41;18.97;;;11.90;;
15486;SDS011;7845;53.698;10.078;2022-12-18T12:46:12;17.50;;;12.33;;
15486;SDS011;7845;53.698;10.078;2022-12-18T12:51:49;70.37;;;41.17;;
15486;SDS011;7845;53.698;10.078;2022-12-18T12:54:32;48.27;;;26.70;;
15486;SDS011;7845;53.698;10.078;2022-12-18T12:57:01;80.00;;;41.27;;
15486;SDS011;7845;53.698;10.078;2022-12-18T12:59:41;119.07;;;58.13;;
15486;SDS011;7845;53.698;10.078;2022-12-18T13:02:31;192.60;;;88.57;;
15486;SDS011;7845;53.698;10.078;2022-12-18T13:05:05;143.37;;;66.60;;
15486;SDS011;7845;53.698;10.078;2022-12-18T13:07:47;135.80;;;59.20;;
15486;SDS011;7845;53.698;10.078;2022-12-18T13:15:41;66.80;;;36.20;;
15486;SDS011;7845;53.698;10.078;2022-12-18T13:20:46;56.50;;;27.93;;
15486;SDS011;7845;53.698;10.078;2022-12-18T13:25:56;33.83;;;15.83;;
15486;SDS011;7845;53.698;10.078;2022-12-18T13:31:13;27.77;;;15.30;;
15486;SDS011;7845;53.698;10.078;2022-12-18T13:36:44;21.37;;;10.30;;
15486;SDS011;7845;53.698;10.078;2022-12-18T13:41:38;24.70;;;13.83;;
15486;SDS011;7845;53.698;10.078;2022-12-18T13:46:44;23.20;;;12.07;;
15486;SDS011;7845;53.698;10.078;2022-12-18T13:51:40;18.70;;;9.33;;
15486;SDS011;7845;53.698;10.078;2022-12-18T13:56:48;21.17;;;10.30;;
15486;SDS011;7845;53.698;10.078;2022-12-18T14:01:48;18.73;;;9.37;;
15486;SDS011;7845;53.698;10.078;2022-12-18T14:04:20;17.80;;;10.50;;
15486;SDS011;7845;53.698;10.078;2022-12-18T14:07:07;24.53;;;11.60;;
15486;SDS011;7845;53.698;10.078;2022-12-18T14:09:39;20.60;;;11.27;;
15486;SDS011;7845;53.698;10.078;2022-12-18T14:12:14;21.97;;;12.27;;
15486;SDS011;7845;53.698;10.078;2022-12-18T14:15:00;19.13;;;9.63;;
15486;SDS011;7845;53.698;10.078;2022-12-18T14:17:25;21.00;;;10.30;;
15486;SDS011;7845;53.698;10.078;2022-12-18T14:19:51;21.23;;;11.40;;
15486;SDS011;7845;53.698;10.078;2022-12-18T14:22:18;16.77;;;9.03;;
15486;SDS011;7845;53.698;10.078;2022-12-18T14:25:28;17.37;;;9.73;;
15486;SDS011;7845;53.698;10.078;2022-12-18T14:27:53;20.70;;;9.27;;
15486;SDS011;7845;53.698;10.078;2022-12-18T14:30:32;24.00;;;11.10;;
15486;SDS011;7845;53.698;10.078;2022-12-18T14:33:05;20.40;;;10.70;;
15486;SDS011;7845;53.698;10.078;2022-12-18T14:35:51;20.80;;;10.47;;
15486;SDS011;7845;53.698;10.078;2022-12-18T14:38:24;22.37;;;11.23;;
15486;SDS011;7845;53.698;10.078;2022-12-18T14:40:58;22.20;;;11.60;;
15486;SDS011;7845;53.698;10.078;2022-12-18T14:43:27;23.60;;;10.40;;
15486;SDS011;7845;53.698;10.078;2022-12-18T14:45:55;22.87;;;11.00;;
15486;SDS011;7845;53.698;10.078;2022-12-18T14:48:24;25.97;;;12.63;;
15486;SDS011;7845;53.698;10.078;2022-12-18T14:51:01;18.23;;;10.53;;
15486;SDS011;7845;53.698;10.078;2022-12-18T14:53:32;22.90;;;11.00;;
15486;SDS011;7845;53.698;10.078;2022-12-18T14:56:03;21.00;;;11.83;;
15486;SDS011;7845;53.698;10.078;2022-12-18T14:58:37;21.67;;;9.83;;
15486;SDS011;7845;53.698;10.078;2022-12-18T15:01:03;21.07;;;10.30;;
15486;SDS011;7845;53.698;10.078;2022-12-18T15:03:29;22.70;;;11.13;;
15486;SDS011;7845;53.698;10.078;2022-12-18T15:06:14;25.23;;;10.77;;
15486;SDS011;7845;53.698;10.078;2022-12-18T15:08:41;21.13;;;10.00;;
15486;SDS011;7845;53.698;10.078;2022-12-18T15:16:54;21.90;;;11.03;;
15486;SDS011;7845;53.698;10.078;2022-12-18T15:19:21;22.60;;;11.23;;
15486;SDS011;7845;53.698;10.078;2022-12-18T15:21:50;27.38;;;15.75;;
15486;SDS011;7845;53.698;10.078;2022-12-18T15:24:16;23.07;;;11.93;;
15486;SDS011;7845;53.698;10.078;2022-12-18T15:26:51;22.00;;;11.27;;
15486;SDS011;7845;53.698;10.078;2022-12-18T15:29:20;22.63;;;11.23;;
15486;SDS011;7845;53.698;10.078;2022-12-18T15:32:05;30.83;;;12.17;;
15486;SDS011;7845;53.698;10.078;2022-12-18T15:34:42;24.80;;;11.73;;
15486;SDS011;7845;53.698;10.078;2022-12-18T15:37:07;25.13;;;11.83;;
15486;SDS011;7845;53.698;10.078;2022-12-18T15:39:33;23.53;;;11.90;;
15486;SDS011;7845;53.698;10.078;2022-12-18T15:42:00;28.63;;;14.00;;
15486;SDS011;7845;53.698;10.078;2022-12-18T15:44:45;30.53;;;12.70;;
15486;SDS011;7845;53.698;10.078;2022-12-18T15:47:11;25.27;;;12.10;;
15486;SDS011;7845;53.698;10.078;2022-12-18T15:49:37;27.67;;;13.17;;
15486;SDS011;7845;53.698;10.078;2022-12-18T15:52:02;30.17;;;13.13;;
15486;SDS011;7845;53.698;10.078;2022-12-18T15:54:29;29.80;;;13.43;;
15486;SDS011;7845;53.698;10.078;2022-12-18T15:57:13;31.73;;;13.67;;
15486;SDS011;7845;53.698;10.078;2022-12-18T15:59:49;24.97;;;12.17;;
15486;SDS011;7845;53.698;10.078;2022-12-18T16:02:16;28.57;;;12.53;;
15486;SDS011;7845;53.698;10.078;2022-12-18T16:04:43;28.90;;;13.60;;
15486;SDS011;7845;53.698;10.078;2022-12-18T16:07:12;30.07;;;13.70;;
15486;SDS011;7845;53.698;10.078;2022-12-18T16:09:37;28.47;;;13.43;;
15486;SDS011;7845;53.698;10.078;2022-12-18T16:12:04;25.33;;;12.37;;
15486;SDS011;7845;53.698;10.078;2022-12-18T16:14:30;23.90;;;12.00;;
15486;SDS011;7845;53.698;10.078;2022-12-18T16:16:58;25.30;;;12.10;;
15486;SDS011;7845;53.698;10.078;2022-12-18T16:19:27;30.23;;;13.50;;
15486;SDS011;7845;53.698;10.078;2022-12-18T16:21:55;26.97;;;12.43;;
15486;SDS011;7845;53.698;10.078;2022-12-18T16:24:23;23.10;;;11.00;;
15486;SDS011;7845;53.698;10.078;2022-12-18T16:26:50;25.43;;;11.50;;